Time;durP1;ratioP1;P1;durP2;ratioP2;P2;SDS_P1;SDS_P2;PMS_P1;PMS_P2;Temp;Humidity;BMP_temperature;BMP_pressure;BME280_temperature;BME280_humidity;BME280_pressure;Samples;Min_cycle;Max_cycle;Signal;HPM_P1;HPM_P2
2020/12/01 00:00:16;;;;;;;28.85;13.18;;;-0.70;99.90;;;;;;5050759;28;20452;-75
2020/12/01 00:02:41;;;;;;;32.50;13.77;;;-0.70;99.90;;;;;;5049587;28;20037;-75
2020/12/01 00:05:09;;;;;;;25.60;12.45;;;-0.70;99.90;;;;;;5050595;28;20048;-75
2020/12/01 00:07:35;;;;;;;29.90;12.55;;;-0.70;99.90;;;;;;5050722;28;20037;-75
2020/12/01 00:10:00;;;;;;;27.83;12.82;;;-0.70;99.90;;;;;;5050546;28;20022;-75
2020/12/01 00:12:26;;;;;;;33.58;14.00;;;-0.70;99.90;;;;;;5051423;28;20548;-75
2020/12/01 00:14:52;;;;;;;27.20;12.85;;;-0.60;99.90;;;;;;5054620;28;20029;-75
2020/12/01 00:17:17;;;;;;;28.25;12.60;;;-0.60;99.90;;;;;;5054372;28;20491;-75
2020/12/01 00:19:43;;;;;;;32.80;13.85;;;-0.60;99.90;;;;;;5054582;28;20116;-75
2020/12/01 00:22:09;;;;;;;27.60;12.57;;;-0.60;99.90;;;;;;5052810;28;20083;-75
2020/12/01 00:24:34;;;;;;;31.60;13.93;;;-0.60;99.90;;;;;;5054069;28;20056;-75
2020/12/01 00:27:00;;;;;;;28.45;13.27;;;-0.60;99.90;;;;;;5054686;28;20059;-75
2020/12/01 00:29:26;;;;;;;28.02;13.40;;;-0.60;99.90;;;;;;5054117;28;20048;-75
2020/12/01 00:31:52;;;;;;;32.58;14.35;;;-0.60;99.90;;;;;;5052793;28;20036;-75
2020/12/01 00:34:17;;;;;;;30.00;12.68;;;-0.60;99.90;;;;;;5054049;28;20032;-75
2020/12/01 00:36:43;;;;;;;29.92;13.07;;;-0.60;99.90;;;;;;5054059;28;20091;-75
2020/12/01 00:39:10;;;;;;;33.58;13.07;;;-0.60;99.90;;;;;;5054146;28;20036;-75
2020/12/01 00:41:36;;;;;;;30.52;14.00;;;-0.60;99.90;;;;;;5052566;28;20468;-75
2020/12/01 00:44:03;;;;;;;28.25;13.00;;;-0.70;99.90;;;;;;5054204;28;20044;-75
2020/12/01 00:46:29;;;;;;;25.33;12.18;;;-0.70;99.90;;;;;;5052471;28;20553;-75
2020/12/01 00:48:55;;;;;;;29.80;13.27;;;-0.70;99.90;;;;;;5052518;28;20082;-75
2020/12/01 00:51:21;;;;;;;29.83;13.45;;;-0.70;99.90;;;;;;5051193;28;20188;-75
2020/12/01 00:53:47;;;;;;;29.35;13.95;;;-0.70;99.90;;;;;;5053752;28;20138;-75
2020/12/01 00:56:22;;;;;;;30.02;13.70;;;-0.80;99.90;;;;;;5049557;28;20041;-75
2020/12/01 00:58:50;;;;;;;29.63;12.77;;;-0.80;99.90;;;;;;5057165;28;20752;-75
2020/12/01 01:01:28;;;;;;;28.60;12.68;;;-0.80;99.90;;;;;;5058540;28;20036;-75
2020/12/01 01:03:58;;;;;;;27.52;12.40;;;-0.80;99.90;;;;;;5060566;28;20033;-75
2020/12/01 01:06:23;;;;;;;28.52;12.43;;;-0.90;99.90;;;;;;5041605;28;20083;-75
2020/12/01 01:08:49;;;;;;;29.98;13.68;;;-1.00;99.90;;;;;;5033694;28;20510;-75
2020/12/01 01:11:15;;;;;;;30.75;13.90;;;-1.00;99.90;;;;;;5032083;28;20108;-75
2020/12/01 01:13:41;;;;;;;29.02;13.00;;;-1.00;99.90;;;;;;5033174;28;20034;-75
2020/12/01 01:16:07;;;;;;;31.63;13.68;;;-1.00;99.90;;;;;;5033599;28;20083;-75
2020/12/01 01:18:33;;;;;;;27.85;12.23;;;-1.10;99.90;;;;;;5031934;28;20042;-75
2020/12/01 01:20:59;;;;;;;27.27;12.80;;;-1.10;99.90;;;;;;5032074;28;20064;-75
2020/12/01 01:23:25;;;;;;;30.15;12.75;;;-1.10;99.90;;;;;;5033012;28;20034;-75
2020/12/01 01:25:51;;;;;;;28.73;12.65;;;-1.10;99.90;;;;;;5033034;28;20036;-75
2020/12/01 01:28:18;;;;;;;25.83;11.63;;;-1.10;99.90;;;;;;5033421;28;20064;-75
2020/12/01 01:30:43;;;;;;;30.85;13.98;;;-1.10;99.90;;;;;;5031480;28;20195;-74
2020/12/01 01:33:10;;;;;;;27.88;12.63;;;-1.10;99.90;;;;;;5033083;28;20501;-75
2020/12/01 01:35:37;;;;;;;27.48;12.60;;;-1.20;99.90;;;;;;5033199;28;20029;-75
2020/12/01 01:38:05;;;;;;;33.67;13.73;;;-1.20;99.90;;;;;;5033043;28;20541;-75
2020/12/01 01:40:32;;;;;;;32.15;13.48;;;-1.20;99.90;;;;;;5032276;28;20025;-75
2020/12/01 01:43:00;;;;;;;28.27;12.50;;;-1.30;99.90;;;;;;5035203;28;20028;-75
2020/12/01 01:45:49;;;;;;;34.67;14.32;;;-1.30;99.90;;;;;;5032922;28;20060;-75
2020/12/01 01:48:26;;;;;;;34.30;13.70;;;-1.30;99.90;;;;;;5047945;28;20044;-75
2020/12/01 01:50:54;;;;;;;30.23;13.45;;;-1.30;99.90;;;;;;5051157;28;20064;-75
2020/12/01 01:53:20;;;;;;;29.58;12.75;;;-1.30;99.90;;;;;;5038189;28;20041;-75
2020/12/01 01:55:46;;;;;;;27.63;12.15;;;-1.30;99.90;;;;;;5032263;28;20037;-75
2020/12/01 01:58:14;;;;;;;30.55;13.30;;;-1.30;99.90;;;;;;5044671;28;20575;-75
2020/12/01 02:01:08;;;;;;;27.63;13.35;;;-1.30;99.90;;;;;;5054417;28;20071;-75
2020/12/01 02:04:00;;;;;;;25.27;11.23;;;-1.30;99.90;;;;;;5058820;28;20051;-75
2020/12/01 02:06:30;;;;;;;30.30;13.18;;;-1.30;99.90;;;;;;5067746;28;20394;-75
2020/12/01 02:09:00;;;;;;;27.13;12.52;;;-1.30;99.90;;;;;;5070553;28;20033;-75
2020/12/01 02:11:28;;;;;;;26.75;12.48;;;-1.30;99.90;;;;;;5070769;28;20036;-75
2020/12/01 02:14:11;;;;;;;29.33;12.73;;;-1.30;99.90;;;;;;5072298;28;20025;-75
2020/12/01 02:16:42;;;;;;;29.17;13.25;;;-1.30;99.90;;;;;;5072094;28;20052;-75
2020/12/01 02:19:13;;;;;;;32.08;13.90;;;-1.30;99.90;;;;;;5071928;28;20028;-75
2020/12/01 02:21:40;;;;;;;31.67;13.02;;;-1.30;99.90;;;;;;5070624;28;20143;-75
2020/12/01 02:24:10;;;;;;;27.90;12.15;;;-1.30;99.90;;;;;;5072278;28;20036;-75
2020/12/01 02:26:37;;;;;;;25.02;12.23;;;-1.30;99.90;;;;;;5071955;28;20625;-75
2020/12/01 02:29:07;;;;;;;30.00;12.60;;;-1.30;99.90;;;;;;5071737;28;20016;-75
2020/12/01 02:31:33;;;;;;;29.33;12.05;;;-1.30;99.90;;;;;;5070173;28;20082;-75
2020/12/01 02:34:03;;;;;;;27.15;12.48;;;-1.30;99.90;;;;;;5071494;28;20044;-75
2020/12/01 02:36:29;;;;;;;24.13;12.02;;;-1.20;99.90;;;;;;5071835;28;20020;-75
2020/12/01 02:38:54;;;;;;;24.98;11.70;;;-1.20;99.90;;;;;;5071610;28;20640;-75
2020/12/01 02:41:20;;;;;;;28.08;13.50;;;-1.20;99.90;;;;;;5070214;28;20086;-75
2020/12/01 02:43:46;;;;;;;29.45;12.63;;;-1.20;99.90;;;;;;5071805;28;20497;-75
2020/12/01 02:46:11;;;;;;;27.48;12.77;;;-1.20;99.90;;;;;;5070613;28;20078;-75
2020/12/01 02:48:38;;;;;;;29.73;13.50;;;-1.10;99.90;;;;;;5050824;28;20087;-76
2020/12/01 02:51:04;;;;;;;28.67;12.93;;;-1.20;99.90;;;;;;5038621;28;20475;-75
2020/12/01 02:53:30;;;;;;;31.05;13.13;;;-1.20;99.90;;;;;;5031739;28;20116;-75
2020/12/01 02:55:55;;;;;;;25.77;11.23;;;-1.20;99.90;;;;;;5031782;28;20041;-75
2020/12/01 02:58:21;;;;;;;29.58;11.95;;;-1.20;99.90;;;;;;5043668;28;20037;-75
2020/12/01 03:00:47;;;;;;;25.98;11.93;;;-1.20;99.90;;;;;;5050012;28;20036;-75
2020/12/01 03:03:13;;;;;;;27.55;13.05;;;-1.20;99.90;;;;;;5051230;28;20063;-75
2020/12/01 03:05:38;;;;;;;27.45;13.38;;;-1.20;99.90;;;;;;5051325;28;20471;-75
2020/12/01 03:08:04;;;;;;;29.38;12.25;;;-1.20;99.90;;;;;;5051532;28;20056;-76
2020/12/01 03:10:30;;;;;;;27.27;11.45;;;-1.20;99.90;;;;;;5050484;28;20368;-75
2020/12/01 03:12:56;;;;;;;33.22;12.93;;;-1.30;99.90;;;;;;5050738;28;20029;-76
2020/12/01 03:15:22;;;;;;;29.35;11.57;;;-1.30;99.90;;;;;;5051074;28;20120;-76
2020/12/01 03:17:49;;;;;;;28.60;11.35;;;-1.30;99.90;;;;;;5051420;28;20032;-75
2020/12/01 03:20:14;;;;;;;26.52;11.48;;;-1.20;99.90;;;;;;5050026;28;20033;-75
2020/12/01 03:22:40;;;;;;;27.00;12.82;;;-1.30;99.90;;;;;;5049731;28;20047;-76
2020/12/01 03:25:06;;;;;;;27.45;12.15;;;-1.30;99.90;;;;;;5051112;28;20041;-75
2020/12/01 03:27:31;;;;;;;26.50;12.02;;;-1.30;99.90;;;;;;5050836;28;20033;-76
2020/12/01 03:29:57;;;;;;;25.90;12.68;;;-1.20;99.90;;;;;;5051162;28;20484;-75
2020/12/01 03:32:24;;;;;;;29.95;11.65;;;-1.30;99.90;;;;;;5049548;28;20033;-76
2020/12/01 03:34:51;;;;;;;26.55;12.35;;;-1.20;99.90;;;;;;5050713;28;20124;-76
2020/12/01 03:37:17;;;;;;;29.35;12.45;;;-1.20;99.90;;;;;;5051439;28;20530;-76
2020/12/01 03:39:43;;;;;;;32.38;12.98;;;-1.20;99.90;;;;;;5050755;28;20133;-75
2020/12/01 03:42:10;;;;;;;31.40;12.55;;;-1.20;99.90;;;;;;5049735;28;20041;-75
2020/12/01 03:44:36;;;;;;;32.90;13.27;;;-1.20;99.90;;;;;;5048306;28;20051;-75
2020/12/01 03:47:01;;;;;;;25.15;12.68;;;-1.20;99.90;;;;;;5054083;28;20391;-75
2020/12/01 03:49:27;;;;;;;25.17;11.45;;;-1.20;99.90;;;;;;5055139;28;20021;-75
2020/12/01 03:51:53;;;;;;;29.15;11.80;;;-1.20;99.90;;;;;;5053275;28;20109;-76
2020/12/01 03:54:18;;;;;;;26.42;12.23;;;-1.10;99.90;;;;;;5055012;28;20540;-75
2020/12/01 03:56:44;;;;;;;29.60;12.52;;;-1.20;99.90;;;;;;5054922;28;20379;-76
2020/12/01 03:59:10;;;;;;;29.63;13.02;;;-1.10;99.90;;;;;;5054511;28;20065;-75
2020/12/01 04:01:36;;;;;;;26.67;11.18;;;-1.20;99.90;;;;;;5053381;28;20039;-76
2020/12/01 04:04:01;;;;;;;27.08;11.95;;;-1.20;99.90;;;;;;5054484;28;20040;-76
2020/12/01 04:06:27;;;;;;;30.77;12.90;;;-1.20;99.90;;;;;;5054858;28;20033;-76
2020/12/01 04:08:53;;;;;;;26.33;11.30;;;-1.20;99.90;;;;;;5054768;28;20025;-76
2020/12/01 04:11:18;;;;;;;25.35;11.80;;;-1.20;99.90;;;;;;5052759;28;20052;-75
2020/12/01 04:13:44;;;;;;;27.25;12.02;;;-1.20;99.90;;;;;;5054517;28;20033;-75
2020/12/01 04:16:10;;;;;;;27.50;12.15;;;-1.20;99.90;;;;;;5054273;28;20063;-75
2020/12/01 04:18:35;;;;;;;26.02;11.70;;;-1.20;99.90;;;;;;5054661;28;20467;-75
2020/12/01 04:21:01;;;;;;;29.08;12.95;;;-1.30;99.90;;;;;;5053032;28;20108;-76
2020/12/01 04:23:27;;;;;;;27.63;12.07;;;-1.30;99.90;;;;;;5054233;28;20491;-75
2020/12/01 04:25:53;;;;;;;29.80;12.70;;;-1.20;99.90;;;;;;5054162;28;20119;-76
2020/12/01 04:28:18;;;;;;;26.98;10.98;;;-1.20;99.90;;;;;;5054135;28;20475;-75
2020/12/01 04:30:44;;;;;;;27.75;12.20;;;-1.20;99.90;;;;;;5053083;28;20638;-76
2020/12/01 04:33:10;;;;;;;29.10;11.65;;;-1.20;99.90;;;;;;5053886;28;20060;-76
2020/12/01 04:35:36;;;;;;;24.80;12.05;;;-1.20;99.90;;;;;;5054138;28;20445;-75
2020/12/01 04:38:06;;;;;;;26.17;12.02;;;-1.20;99.90;;;;;;5054263;28;20039;-75
2020/12/01 04:40:38;;;;;;;28.55;12.35;;;-1.20;99.90;;;;;;5052673;28;20037;-76
2020/12/01 04:43:30;;;;;;;23.65;10.85;;;-1.20;99.90;;;;;;5054091;28;20033;-75
2020/12/01 04:45:56;;;;;;;29.27;13.02;;;-1.20;99.90;;;;;;5054110;28;20109;-76
2020/12/01 04:48:44;;;;;;;30.10;11.93;;;-1.20;99.90;;;;;;5051174;28;20033;-76
2020/12/01 04:51:39;;;;;;;27.23;12.68;;;-1.20;99.90;;;;;;5041890;28;20035;-76
2020/12/01 04:54:26;;;;;;;24.30;11.27;;;-1.10;99.90;;;;;;5053724;28;20028;-76
2020/12/01 04:57:29;;;;;;;25.38;11.35;;;-1.20;99.90;;;;;;5053577;28;20056;-76
2020/12/01 05:00:04;;;;;;;29.88;12.55;;;-1.20;99.90;;;;;;5033636;28;20037;-76
2020/12/01 05:02:37;;;;;;;31.27;12.52;;;-1.20;99.90;;;;;;5032438;28;20544;-76
2020/12/01 05:05:24;;;;;;;26.48;12.27;;;-1.20;99.90;;;;;;5033691;28;20076;-76
2020/12/01 05:08:13;;;;;;;36.00;14.82;;;-1.20;99.90;;;;;;5033816;28;20033;-77
2020/12/01 05:10:43;;;;;;;31.35;13.73;;;-1.20;99.90;;;;;;5032131;28;20573;-76
2020/12/01 05:13:17;;;;;;;28.23;13.00;;;-1.20;99.90;;;;;;5034219;28;20029;-76
2020/12/01 05:15:47;;;;;;;30.25;13.32;;;-1.20;99.90;;;;;;5042760;28;20033;-76
2020/12/01 05:18:23;;;;;;;31.35;13.65;;;-1.20;99.90;;;;;;5033301;28;20087;-76
2020/12/01 05:20:52;;;;;;;27.08;12.15;;;-1.20;99.90;;;;;;5032117;28;20032;-76
2020/12/01 05:23:32;;;;;;;32.25;13.73;;;-1.20;99.90;;;;;;5033375;28;20124;-76
2020/12/01 05:26:04;;;;;;;33.22;13.45;;;-1.20;99.90;;;;;;5051853;28;20032;-76
2020/12/01 05:28:30;;;;;;;33.45;13.05;;;-1.20;99.90;;;;;;5050874;28;20049;-76
2020/12/01 05:31:04;;;;;;;30.50;12.63;;;-1.30;99.90;;;;;;5050242;28;20056;-75
2020/12/01 05:33:32;;;;;;;30.88;13.80;;;-1.30;99.90;;;;;;5052127;28;20452;-75
2020/12/01 05:36:00;;;;;;;32.00;14.05;;;-1.30;99.90;;;;;;5051805;28;20144;-75
2020/12/01 05:38:26;;;;;;;30.05;13.30;;;-1.30;99.90;;;;;;5046955;28;20438;-75
2020/12/01 05:40:53;;;;;;;28.98;12.70;;;-1.30;99.90;;;;;;5030405;28;20041;-76
2020/12/01 05:43:34;;;;;;;33.55;14.05;;;-1.30;99.90;;;;;;5045981;28;20582;-75
2020/12/01 05:46:28;;;;;;;34.78;13.50;;;-1.30;99.90;;;;;;5058031;28;20211;-75
2020/12/01 05:49:00;;;;;;;29.45;12.68;;;-1.30;99.90;;;;;;5073020;28;20395;-75
2020/12/01 05:51:34;;;;;;;31.98;14.23;;;-1.30;99.90;;;;;;5071738;28;20028;-75
2020/12/01 05:54:00;;;;;;;33.88;13.80;;;-1.30;99.90;;;;;;5073692;28;20112;-76
2020/12/01 05:56:26;;;;;;;31.73;14.45;;;-1.30;99.90;;;;;;5072986;28;20123;-75
2020/12/01 05:59:01;;;;;;;34.22;14.85;;;-1.20;99.90;;;;;;5058457;28;20037;-75
2020/12/01 06:01:39;;;;;;;30.85;13.75;;;-1.20;99.90;;;;;;5050508;28;20388;-76
2020/12/01 06:04:34;;;;;;;33.58;14.68;;;-1.20;99.90;;;;;;5051956;28;20087;-75
2020/12/01 06:07:14;;;;;;;35.67;13.60;;;-1.20;99.90;;;;;;5022670;28;20102;-75
2020/12/01 06:10:01;;;;;;;36.13;12.77;;;-1.20;99.90;;;;;;5051457;28;20403;-75
2020/12/01 06:12:52;;;;;;;33.92;13.13;;;-1.10;99.90;;;;;;5044604;28;20091;-75
2020/12/01 06:15:20;;;;;;;32.28;13.52;;;-1.10;99.90;;;;;;5036144;28;20037;-75
2020/12/01 06:17:56;;;;;;;30.88;14.15;;;-1.10;99.90;;;;;;5033268;28;20021;-75
2020/12/01 06:20:32;;;;;;;33.70;14.27;;;-1.10;99.90;;;;;;5040233;28;20037;-75
2020/12/01 06:23:23;;;;;;;35.00;14.20;;;-1.10;99.90;;;;;;5051169;28;20033;-75
2020/12/01 06:26:11;;;;;;;29.27;13.02;;;-1.10;99.90;;;;;;5052404;28;20484;-75
2020/12/01 06:28:56;;;;;;;30.08;13.90;;;-1.10;99.90;;;;;;5051311;28;20382;-76
2020/12/01 06:31:47;;;;;;;33.72;14.20;;;-1.10;99.90;;;;;;5051004;28;20033;-75
2020/12/01 06:34:30;;;;;;;30.65;12.45;;;-1.10;99.90;;;;;;5051273;28;20029;-76
2020/12/01 06:37:18;;;;;;;38.60;14.85;;;-1.10;99.90;;;;;;5053779;28;20058;-74
2020/12/01 06:40:13;;;;;;;31.95;13.45;;;-1.20;99.90;;;;;;5032328;28;20041;-75
2020/12/01 06:42:50;;;;;;;33.70;14.18;;;-1.20;99.90;;;;;;5048046;28;20102;-75
2020/12/01 06:45:19;;;;;;;34.88;14.18;;;-1.10;99.90;;;;;;5050886;28;20090;-74
2020/12/01 06:47:47;;;;;;;37.63;15.07;;;-1.10;99.90;;;;;;5026983;28;20029;-75
2020/12/01 06:50:18;;;;;;;38.90;14.32;;;-1.10;99.90;;;;;;5051937;28;20037;-75
2020/12/01 06:53:01;;;;;;;34.40;14.63;;;-1.10;99.90;;;;;;5052347;28;20068;-74
2020/12/01 06:55:51;;;;;;;31.08;13.63;;;-1.10;99.90;;;;;;5053450;28;20029;-75
2020/12/01 06:58:57;;;;;;;39.35;14.13;;;-1.10;99.90;;;;;;5053352;28;20032;-76
2020/12/01 07:01:22;;;;;;;30.52;13.05;;;-1.10;99.90;;;;;;5051642;28;20051;-75
2020/12/01 07:04:13;;;;;;;35.20;14.57;;;-1.10;99.90;;;;;;5053609;28;20029;-75
2020/12/01 07:06:49;;;;;;;37.55;14.27;;;-1.10;99.90;;;;;;5053809;28;20629;-75
2020/12/01 07:09:39;;;;;;;32.60;14.65;;;-1.10;99.90;;;;;;5051744;28;20108;-75
2020/12/01 07:12:15;;;;;;;39.38;15.73;;;-1.00;99.90;;;;;;5051377;28;20115;-75
2020/12/01 07:14:46;;;;;;;37.97;14.88;;;-1.00;99.90;;;;;;5034237;28;20032;-76
2020/12/01 07:17:17;;;;;;;36.60;15.60;;;-1.00;99.90;;;;;;5051623;28;20112;-75
2020/12/01 07:20:22;;;;;;;39.63;14.80;;;-1.00;99.90;;;;;;5052849;28;20021;-75
2020/12/01 07:22:59;;;;;;;33.35;15.68;;;-1.00;99.90;;;;;;5050358;28;20484;-75
2020/12/01 07:25:38;;;;;;;35.92;14.93;;;-1.00;99.90;;;;;;5051396;28;20029;-75
2020/12/01 07:28:30;;;;;;;42.47;16.20;;;-1.00;99.90;;;;;;5052286;28;20029;-75
2020/12/01 07:31:00;;;;;;;33.10;13.95;;;-1.00;99.90;;;;;;5050267;28;20395;-75
2020/12/01 07:33:34;;;;;;;37.72;14.40;;;-0.90;99.90;;;;;;5052109;28;20040;-75
2020/12/01 07:36:14;;;;;;;41.55;14.68;;;-0.90;99.90;;;;;;5051865;28;20037;-75
2020/12/01 07:38:43;;;;;;;37.25;16.23;;;-0.90;99.90;;;;;;5051366;28;20056;-75
2020/12/01 07:41:44;;;;;;;41.15;15.90;;;-0.90;99.90;;;;;;5049710;28;20055;-76
2020/12/01 07:44:28;;;;;;;41.60;16.00;;;-0.90;99.90;;;;;;5051343;28;20511;-76
2020/12/01 07:47:22;;;;;;;33.72;15.57;;;-0.80;99.90;;;;;;5049617;28;20041;-75
2020/12/01 07:50:03;;;;;;;37.97;14.50;;;-0.80;99.90;;;;;;5043870;28;20552;-76
2020/12/01 07:52:32;;;;;;;35.42;14.80;;;-0.80;99.90;;;;;;5047169;28;20549;-75
2020/12/01 07:55:05;;;;;;;36.22;14.32;;;-0.80;99.90;;;;;;5050757;28;20108;-75
2020/12/01 07:57:31;;;;;;;37.80;15.18;;;-0.70;99.90;;;;;;5048600;28;20117;-76
2020/12/01 07:59:59;;;;;;;38.50;15.27;;;-0.70;99.90;;;;;;5050703;28;20096;-76
2020/12/01 08:02:28;;;;;;;40.13;16.13;;;-0.70;99.90;;;;;;5049556;28;20116;-76
2020/12/01 08:04:59;;;;;;;35.25;15.90;;;-0.70;99.90;;;;;;5047869;28;20021;-75
2020/12/01 08:07:24;;;;;;;34.90;15.55;;;-0.70;99.90;;;;;;5037770;28;20108;-75
2020/12/01 08:10:00;;;;;;;38.80;15.70;;;-0.60;99.90;;;;;;5038864;28;20666;-76
2020/12/01 08:12:31;;;;;;;37.33;16.45;;;-0.60;99.90;;;;;;5050330;28;20025;-75
2020/12/01 08:14:58;;;;;;;39.05;16.25;;;-0.60;99.90;;;;;;5033033;28;20128;-76
2020/12/01 08:17:28;;;;;;;36.33;15.57;;;-0.60;99.90;;;;;;5044830;28;20029;-76
2020/12/01 08:19:54;;;;;;;37.80;15.82;;;-0.60;99.90;;;;;;5051129;28;20076;-76
2020/12/01 08:22:27;;;;;;;34.95;15.07;;;-0.60;99.90;;;;;;5033489;28;20041;-76
2020/12/01 08:24:59;;;;;;;33.67;14.10;;;-0.60;99.90;;;;;;5039375;28;20045;-76
2020/12/01 08:27:43;;;;;;;34.45;14.98;;;-0.50;99.90;;;;;;5031692;28;20381;-76
2020/12/01 08:30:20;;;;;;;38.42;15.30;;;-0.50;99.90;;;;;;5048542;28;20048;-76
2020/12/01 08:32:47;;;;;;;31.80;14.68;;;-0.50;99.90;;;;;;5050706;28;20423;-76
2020/12/01 08:35:42;;;;;;;36.92;15.95;;;-0.50;99.90;;;;;;5054371;28;20033;-76
2020/12/01 08:38:19;;;;;;;33.15;13.73;;;-0.50;99.90;;;;;;5054101;28;20037;-76
2020/12/01 08:41:24;;;;;;;40.28;14.20;;;-0.50;99.90;;;;;;5051788;28;20502;-76
2020/12/01 08:44:01;;;;;;;33.75;13.35;;;-0.50;99.90;;;;;;5053627;28;20044;-76
2020/12/01 08:46:28;;;;;;;37.90;15.63;;;-0.40;99.90;;;;;;5054058;28;20029;-76
2020/12/01 08:49:07;;;;;;;34.90;13.85;;;-0.40;99.90;;;;;;5054393;28;20033;-76
2020/12/01 08:52:25;;;;;;;35.78;15.23;;;-0.40;99.90;;;;;;5049303;28;20423;-76
2020/12/01 08:54:57;;;;;;;28.35;11.15;;;-0.40;99.90;;;;;;5045487;28;20032;-76
2020/12/01 08:57:33;;;;;;;30.63;13.00;;;-0.40;99.90;;;;;;5053086;28;20060;-76
2020/12/01 09:00:16;;;;;;;34.25;14.13;;;-0.40;99.90;;;;;;5052610;28;20033;-75
2020/12/01 09:02:45;;;;;;;34.55;14.32;;;-0.40;99.90;;;;;;5052850;28;20033;-76
2020/12/01 09:05:34;;;;;;;30.45;13.23;;;-0.50;99.90;;;;;;5052568;28;20047;-76
2020/12/01 09:08:37;;;;;;;26.70;11.68;;;-0.50;99.90;;;;;;5037771;28;20033;-76
2020/12/01 09:19:42;;;;;;;34.15;14.55;;;-0.40;99.90;;;;;;5053770;28;20039;-76
2020/12/01 09:22:14;;;;;;;30.85;13.65;;;-0.40;99.90;;;;;;5052539;28;20037;-76
2020/12/01 09:24:40;;;;;;;30.48;12.43;;;-0.40;99.90;;;;;;5039509;28;20538;-77
2020/12/01 09:27:10;;;;;;;27.58;12.98;;;-0.30;99.90;;;;;;5016858;28;20076;-77
2020/12/01 09:29:37;;;;;;;34.95;14.25;;;-0.20;99.90;;;;;;5046939;28;20059;-77
2020/12/01 09:32:06;;;;;;;34.83;14.88;;;-0.10;99.90;;;;;;5052378;28;20147;-77
2020/12/01 09:34:33;;;;;;;31.80;13.77;;;0.00;99.90;;;;;;5053227;28;20033;-76
2020/12/01 09:37:03;;;;;;;31.30;13.80;;;0.00;99.90;;;;;;5053062;28;20547;-77
2020/12/01 09:39:31;;;;;;;30.98;14.27;;;0.00;99.90;;;;;;5052547;28;20029;-77
2020/12/01 09:42:08;;;;;;;32.92;13.68;;;0.00;99.90;;;;;;5050860;28;20033;-77
2020/12/01 09:47:10;;;;;;;31.15;13.23;;;0.10;99.90;;;;;;5053119;28;20124;-77
2020/12/01 09:49:36;;;;;;;30.33;13.35;;;0.10;99.90;;;;;;5051567;28;20028;-77
2020/12/01 09:52:09;;;;;;;37.38;15.32;;;0.10;99.90;;;;;;5050132;28;20026;-77
2020/12/01 09:55:03;;;;;;;30.90;15.02;;;0.10;99.90;;;;;;5052043;28;20503;-77
2020/12/01 09:57:36;;;;;;;31.35;13.60;;;0.10;99.90;;;;;;5052693;28;20090;-77
2020/12/01 10:14:02;;;;;;;29.20;13.40;;;0.10;99.90;;;;;;5049185;28;20036;-77
2020/12/01 10:22:31;;;;;;;31.63;13.65;;;0.20;99.90;;;;;;5047152;28;20043;-76
2020/12/01 10:27:42;;;;;;;33.63;15.18;;;0.20;99.90;;;;;;5047963;28;20120;-76
2020/12/01 10:35:36;;;;;;;37.53;14.20;;;0.40;99.90;;;;;;5055164;28;20052;-76
2020/12/01 10:38:02;;;;;;;33.65;14.45;;;0.40;99.90;;;;;;5048586;28;20040;-76
2020/12/01 10:40:29;;;;;;;30.15;13.30;;;0.40;99.90;;;;;;5047365;28;20083;-77
2020/12/01 10:42:55;;;;;;;30.45;13.18;;;0.40;99.90;;;;;;5030906;28;20033;-77
2020/12/01 10:45:22;;;;;;;30.92;13.27;;;0.30;99.90;;;;;;5035223;28;20108;-76
2020/12/01 10:47:48;;;;;;;30.23;13.65;;;0.40;99.90;;;;;;5036343;28;20060;-78
2020/12/01 10:50:15;;;;;;;31.65;14.55;;;0.30;99.90;;;;;;5039053;28;20068;-77
2020/12/01 10:52:41;;;;;;;31.90;13.77;;;0.30;99.90;;;;;;5046996;28;20024;-75
2020/12/01 10:55:07;;;;;;;30.98;14.68;;;0.40;99.90;;;;;;5047158;28;20034;-76
2020/12/01 10:57:35;;;;;;;33.10;12.85;;;0.40;99.90;;;;;;5048382;28;20436;-76
2020/12/01 11:00:07;;;;;;;30.13;14.13;;;0.40;99.90;;;;;;5041975;28;20080;-77
2020/12/01 11:02:34;;;;;;;33.90;13.90;;;0.40;99.90;;;;;;5026811;28;20539;-76
2020/12/01 11:04:59;;;;;;;30.70;13.80;;;0.50;99.90;;;;;;5029239;28;20029;-76
2020/12/01 11:07:25;;;;;;;33.08;13.50;;;0.50;99.90;;;;;;5047667;28;20085;-77
2020/12/01 11:09:51;;;;;;;27.65;13.10;;;0.50;99.90;;;;;;5035355;28;20022;-77
2020/12/01 11:12:16;;;;;;;28.83;13.38;;;0.50;99.90;;;;;;5038131;28;20044;-77
2020/12/01 11:14:42;;;;;;;28.65;12.95;;;0.50;99.90;;;;;;5046486;28;20052;-77
2020/12/01 11:17:08;;;;;;;28.77;13.27;;;0.60;99.90;;;;;;5047217;28;20024;-76
2020/12/01 11:19:34;;;;;;;29.27;12.32;;;0.60;99.90;;;;;;5048316;28;20406;-76
2020/12/01 11:21:59;;;;;;;29.98;13.23;;;0.60;99.90;;;;;;5052420;28;20053;-77
2020/12/01 11:24:25;;;;;;;33.63;14.18;;;0.50;99.90;;;;;;5027256;28;20033;-77
2020/12/01 11:26:51;;;;;;;28.25;13.50;;;0.60;99.90;;;;;;5028264;28;20542;-77
2020/12/01 11:29:17;;;;;;;33.35;13.45;;;0.50;99.90;;;;;;5040713;23;20365;-78
2020/12/01 11:31:43;;;;;;;31.40;13.95;;;0.50;99.90;;;;;;5025097;28;20040;-79
2020/12/01 11:34:11;;;;;;;27.67;12.95;;;0.40;99.90;;;;;;5030494;28;20022;-80
2020/12/01 11:36:39;;;;;;;32.97;14.18;;;0.40;99.90;;;;;;5031465;28;20095;-79
2020/12/01 11:39:07;;;;;;;28.65;12.02;;;0.40;99.90;;;;;;5020657;28;20037;-78
2020/12/01 11:41:34;;;;;;;33.13;14.02;;;0.40;99.90;;;;;;5029092;28;20041;-79
2020/12/01 11:43:59;;;;;;;32.55;14.10;;;0.40;99.90;;;;;;5026761;28;20033;-78
2020/12/01 11:46:25;;;;;;;32.30;14.05;;;0.50;99.90;;;;;;4991243;28;20048;-78
2020/12/01 11:48:51;;;;;;;31.40;14.15;;;0.50;99.90;;;;;;5027148;28;20076;-80
2020/12/01 11:51:17;;;;;;;30.30;13.88;;;0.60;99.90;;;;;;5008985;28;20040;-79
2020/12/01 11:53:43;;;;;;;28.98;13.68;;;0.70;99.90;;;;;;5027404;28;20055;-78
2020/12/01 11:56:10;;;;;;;28.27;13.27;;;0.70;99.90;;;;;;5030618;28;20041;-78
2020/12/01 11:58:35;;;;;;;30.55;14.48;;;0.80;99.90;;;;;;5029227;28;20112;-80
2020/12/01 12:01:03;;;;;;;28.63;12.10;;;0.80;99.90;;;;;;5025948;28;20029;-77
2020/12/01 12:03:28;;;;;;;35.33;13.73;;;0.80;99.90;;;;;;5008417;28;20081;-80
2020/12/01 12:05:54;;;;;;;25.48;12.95;;;0.80;99.90;;;;;;5010424;28;20057;-79
2020/12/01 12:08:20;;;;;;;29.98;13.13;;;0.80;99.90;;;;;;5028888;28;20450;-80
2020/12/01 12:10:45;;;;;;;29.83;13.35;;;0.80;99.90;;;;;;5011040;28;20034;-79
2020/12/01 12:13:11;;;;;;;28.35;12.63;;;0.80;99.90;;;;;;4981252;28;20040;-80
2020/12/01 12:15:37;;;;;;;28.75;12.93;;;0.80;99.90;;;;;;5033057;28;20087;-79
2020/12/01 12:18:02;;;;;;;27.50;13.20;;;0.80;99.90;;;;;;5030565;28;20052;-79
2020/12/01 12:20:28;;;;;;;30.10;13.20;;;0.80;99.90;;;;;;5013935;28;20035;-79
2020/12/01 12:22:54;;;;;;;30.67;13.23;;;0.80;99.90;;;;;;5030973;28;20431;-80
2020/12/01 12:25:20;;;;;;;26.30;11.50;;;0.80;99.90;;;;;;5031820;28;20207;-80
2020/12/01 12:27:46;;;;;;;28.88;13.18;;;0.80;99.90;;;;;;5031041;28;20520;-77
2020/12/01 12:30:11;;;;;;;29.80;13.25;;;0.80;99.90;;;;;;4999209;28;20774;-78
2020/12/01 12:32:37;;;;;;;27.30;12.52;;;0.80;99.90;;;;;;4993463;28;20125;-79
2020/12/01 12:35:04;;;;;;;24.83;12.88;;;0.80;99.90;;;;;;5014256;28;20036;-78
2020/12/01 12:37:30;;;;;;;31.00;14.27;;;0.80;99.90;;;;;;5028051;28;20025;-79
2020/12/01 12:39:55;;;;;;;35.92;14.65;;;0.80;99.90;;;;;;5014352;28;20033;-78
2020/12/01 12:42:21;;;;;;;32.13;13.48;;;0.80;99.90;;;;;;4995473;28;20093;-79
2020/12/01 12:44:47;;;;;;;33.45;13.98;;;0.80;99.90;;;;;;5017921;28;20542;-78
2020/12/01 12:47:13;;;;;;;25.08;12.40;;;0.80;99.90;;;;;;5030836;28;20084;-77
2020/12/01 12:49:39;;;;;;;27.25;11.90;;;0.70;99.90;;;;;;5032455;28;20045;-79
2020/12/01 12:52:05;;;;;;;32.20;13.63;;;0.70;99.90;;;;;;5030142;28;20067;-79
2020/12/01 12:54:30;;;;;;;29.58;12.88;;;0.70;99.90;;;;;;5011617;28;20044;-77
2020/12/01 12:56:56;;;;;;;30.48;14.43;;;0.70;99.90;;;;;;5017858;28;20041;-79
2020/12/01 12:59:22;;;;;;;28.40;12.90;;;0.70;99.90;;;;;;5033253;28;20101;-79
2020/12/01 13:01:47;;;;;;;30.17;13.13;;;0.70;99.90;;;;;;5033407;28;20034;-79
2020/12/01 13:04:13;;;;;;;29.38;13.57;;;0.80;99.90;;;;;;5036685;28;20030;-79
2020/12/01 13:06:39;;;;;;;28.25;13.60;;;0.80;99.90;;;;;;5036150;28;20030;-79
2020/12/01 13:09:06;;;;;;;29.67;13.15;;;0.80;99.90;;;;;;5017981;28;20052;-79
2020/12/01 13:11:32;;;;;;;31.95;13.18;;;0.80;99.90;;;;;;5017444;28;20498;-78
2020/12/01 13:14:00;;;;;;;27.60;13.35;;;0.90;99.90;;;;;;5036253;28;20037;-79
2020/12/01 13:16:26;;;;;;;30.65;13.82;;;1.00;99.90;;;;;;5036957;28;20037;-79
2020/12/01 13:18:52;;;;;;;31.90;13.02;;;0.90;99.90;;;;;;5035589;28;20034;-79
2020/12/01 13:21:18;;;;;;;30.63;13.30;;;1.00;99.90;;;;;;5017834;28;20132;-79
2020/12/01 13:23:43;;;;;;;28.17;13.23;;;1.00;99.90;;;;;;5035512;28;20044;-78
2020/12/01 13:26:09;;;;;;;27.60;13.75;;;1.00;99.90;;;;;;5034590;28;20033;-78
2020/12/01 13:28:35;;;;;;;34.92;14.00;;;1.00;99.90;;;;;;5034957;28;20045;-78